Time;durP1;ratioP1;P1;durP2;ratioP2;P2;SDS_P1;SDS_P2;PMS_P1;PMS_P2;Temp;Humidity;BMP_temperature;BMP_pressure;BME280_temperature;BME280_humidity;BME280_pressure;Samples;Min_cycle;Max_cycle;Signal;HPM_P1;HPM_P2
2022/04/13 00:01:42;;;;;;;6.10;4.13;;;;;;;7.41;58.36;100493.00;5114023;27;20627;-32
2022/04/13 00:04:08;;;;;;;8.10;4.53;;;;;;;7.41;59.10;100492.19;5132631;27;20027;-28
2022/04/13 00:06:38;;;;;;;8.82;4.97;;;;;;;7.43;59.75;100495.47;5132818;27;20033;-28
2022/04/13 00:09:08;;;;;;;6.13;3.88;;;;;;;7.44;58.53;100483.84;5113827;27;20027;-31
2022/04/13 00:11:34;;;;;;;5.80;4.00;;;;;;;7.32;58.59;100477.41;5132454;27;20419;-29
2022/04/13 00:14:00;;;;;;;9.85;4.18;;;;;;;7.27;58.84;100490.38;5113775;27;20065;-29
2022/04/13 00:16:26;;;;;;;6.05;3.97;;;;;;;7.26;60.34;100483.44;5132602;27;20031;-28
2022/04/13 00:18:51;;;;;;;8.85;4.30;;;;;;;7.28;59.85;100482.25;5113497;27;20054;-28
2022/04/13 00:21:17;;;;;;;6.47;3.65;;;;;;;7.16;59.38;100465.16;5132322;27;20063;-30
2022/04/13 00:23:43;;;;;;;6.97;4.05;;;;;;;7.37;60.15;100482.94;5113817;27;20031;-29
2022/04/13 00:26:08;;;;;;;6.40;4.00;;;;;;;7.08;59.94;100466.09;5132301;27;20023;-34
2022/04/13 00:28:34;;;;;;;6.78;4.50;;;;;;;7.17;59.63;100488.88;5132371;27;20031;-30
2022/04/13 00:30:59;;;;;;;7.88;4.40;;;;;;;7.10;60.11;100479.19;5132671;27;20027;-29
2022/04/13 00:33:25;;;;;;;6.30;3.95;;;;;;;7.12;58.79;100483.28;5132041;27;20030;-28
2022/04/13 00:35:50;;;;;;;5.40;3.88;;;;;;;7.15;59.36;100492.69;5131818;27;20533;-29
2022/04/13 00:38:16;;;;;;;6.13;4.13;;;;;;;6.98;59.40;100460.25;5113197;27;20023;-33
2022/04/13 00:40:42;;;;;;;6.43;4.20;;;;;;;7.02;60.73;100486.22;5131763;27;20523;-29
2022/04/13 00:43:08;;;;;;;5.90;3.70;;;;;;;7.00;59.28;100484.75;5132047;27;20068;-27
2022/04/13 00:45:34;;;;;;;6.00;3.60;;;;;;;6.90;60.31;100479.75;5113259;27;20122;-29
2022/04/13 00:48:02;;;;;;;5.97;3.67;;;;;;;7.02;59.28;100465.00;5131807;27;20023;-29
2022/04/13 00:50:27;;;;;;;6.47;3.50;;;;;;;7.05;59.69;100474.44;5131379;27;20057;-29
2022/04/13 00:52:56;;;;;;;6.57;3.83;;;;;;;6.89;60.57;100474.63;5131534;27;20023;-32
2022/04/13 00:55:24;;;;;;;;;;;;;;;6.73;62.01;100484.41;5132233;27;20038;-29
2022/04/13 00:57:51;;;;;;;6.78;3.63;;;;;;;6.74;60.27;100470.19;5131674;27;19915;-29
2022/04/13 01:00:19;;;;;;;9.25;4.55;;;;;;;6.64;61.93;100465.16;5131282;27;20519;-30
2022/04/13 01:02:45;;;;;;;6.97;4.63;;;;;;;6.62;61.39;100471.63;5131387;27;20084;-31
2022/04/13 01:05:11;;;;;;;8.05;4.20;;;;;;;6.68;60.89;100455.00;5130088;27;20119;-28
2022/04/13 01:07:39;;;;;;;6.25;4.13;;;;;;;6.72;61.71;100466.88;5131220;27;20459;-28
2022/04/13 01:10:06;;;;;;;7.80;4.65;;;;;;;6.57;61.50;100452.81;5113080;27;20027;-29
2022/04/13 01:12:32;;;;;;;7.95;4.88;;;;;;;6.58;61.60;100459.75;5112580;27;20150;-29
2022/04/13 01:14:58;;;;;;;7.38;4.50;;;;;;;6.75;61.33;100473.63;5112844;27;20088;-29
2022/04/13 01:17:24;;;;;;;6.93;4.38;;;;;;;6.69;61.21;100456.63;5131077;27;20039;-28
2022/04/13 01:19:49;;;;;;;7.05;4.30;;;;;;;6.23;61.05;100456.78;5131028;27;20581;-29
2022/04/13 01:22:17;;;;;;;7.15;4.90;;;;;;;6.24;62.61;100474.34;5131132;27;20058;-31
2022/04/13 01:24:42;;;;;;;10.38;5.68;;;;;;;5.86;62.61;100460.25;5112761;27;20031;-29
2022/04/13 01:27:08;;;;;;;11.90;5.63;;;;;;;5.73;63.08;100466.16;5131317;27;20023;-29
2022/04/13 01:29:33;;;;;;;8.73;5.57;;;;;;;5.71;64.32;100470.78;5130919;27;20023;-28
2022/04/13 01:31:58;;;;;;;10.18;7.20;;;;;;;5.66;64.19;100467.84;5131030;27;20031;-29
2022/04/13 01:34:24;;;;;;;10.75;7.50;;;;;;;6.08;63.09;100469.19;5130554;27;20509;-28
2022/04/13 01:36:49;;;;;;;11.25;7.07;;;;;;;6.11;62.91;100474.97;5130693;27;20058;-29
2022/04/13 01:39:15;;;;;;;10.65;7.00;;;;;;;5.72;64.99;100472.44;5130973;27;20023;-32
2022/04/13 01:41:40;;;;;;;14.43;8.27;;;;;;;5.31;66.78;100472.69;5131164;27;20024;-32
2022/04/13 01:44:06;;;;;;;13.80;8.65;;;;;;;5.42;66.31;100459.09;5112287;27;20027;-28
2022/04/13 01:46:31;;;;;;;12.02;8.43;;;;;;;5.13;66.93;100473.81;5130420;27;20026;-29
2022/04/13 01:48:56;;;;;;;12.60;8.45;;;;;;;5.16;66.11;100459.41;5130439;27;20398;-28
2022/04/13 01:51:22;;;;;;;14.82;10.10;;;;;;;5.55;66.19;100472.53;5130586;27;20062;-32
2022/04/13 01:53:50;;;;;;;11.43;7.93;;;;;;;5.35;66.46;100458.97;5131166;27;20035;-31
2022/04/13 01:56:16;;;;;;;18.42;13.50;;;;;;;5.34;65.83;100452.03;5130343;27;20030;-29
2022/04/13 01:58:41;;;;;;;11.77;7.95;;;;;;;5.20;65.86;100466.00;5111948;27;20032;-30
2022/04/13 02:01:07;;;;;;;14.57;8.48;;;;;;;5.21;66.66;100451.75;5111651;27;20118;-28
2022/04/13 02:03:32;;;;;;;14.77;8.10;;;;;;;5.30;64.69;100481.66;5130071;27;20110;-28
2022/04/13 02:05:58;;;;;;;10.52;7.03;;;;;;;5.32;64.74;100479.66;5130521;27;20063;-30
2022/04/13 02:08:23;;;;;;;8.50;5.63;;;;;;;5.16;66.67;100476.09;5129831;27;20039;-28
2022/04/13 02:10:50;;;;;;;6.78;4.28;;;;;;;4.98;67.30;100483.44;5111844;27;20058;-29
2022/04/13 02:13:16;;;;;;;6.57;4.22;;;;;;;5.01;66.95;100480.47;5111586;27;20110;-31
2022/04/13 02:15:42;;;;;;;8.35;4.05;;;;;;;5.09;67.21;100485.72;5130006;27;20102;-29
2022/04/13 02:18:07;;;;;;;5.68;3.58;;;;;;;4.83;68.10;100486.81;5129843;27;20031;-29
2022/04/13 02:20:33;;;;;;;5.90;4.10;;;;;;;4.79;67.28;100474.94;5130372;27;20039;-29
2022/04/13 02:23:01;;;;;;;5.97;4.10;;;;;;;4.61;67.50;100480.44;5129839;27;20119;-32
2022/04/13 02:25:27;;;;;;;7.40;4.43;;;;;;;4.50;66.90;100464.16;5129969;27;20114;-29
2022/04/13 02:27:52;;;;;;;7.38;4.88;;;;;;;4.54;67.13;100470.72;5130153;27;20122;-29
2022/04/13 02:30:18;;;;;;;8.77;5.60;;;;;;;4.71;67.07;100485.53;5129416;27;20083;-30
2022/04/13 02:32:44;;;;;;;7.63;5.05;;;;;;;4.59;68.57;100474.50;5129724;27;20027;-29
2022/04/13 02:35:10;;;;;;;11.25;5.60;;;;;;;4.48;69.10;100482.78;5129784;27;20122;-29
2022/04/13 02:37:36;;;;;;;50.08;8.70;;;;;;;4.04;70.30;100480.53;5110885;27;20047;-30
2022/04/13 02:40:02;;;;;;;9.55;6.18;;;;;;;4.62;68.82;100479.44;5129619;27;20027;-29
2022/04/13 02:42:34;;;;;;;15.85;9.10;;;;;;;4.51;67.26;100479.78;5110828;27;20034;-28
2022/04/13 02:45:02;;;;;;;13.13;8.38;;;;;;;4.64;67.28;100474.00;5110745;27;20027;-30
2022/04/13 02:47:27;;;;;;;13.93;7.38;;;;;;;4.38;67.46;100461.03;5111033;27;20509;-30
2022/04/13 02:49:54;;;;;;;13.90;6.85;;;;;;;4.49;68.08;100483.59;5129382;27;20035;-30
2022/04/13 02:52:20;;;;;;;11.25;6.93;;;;;;;4.32;68.15;100477.53;5129185;27;20140;-28
2022/04/13 02:54:45;;;;;;;8.65;6.28;;;;;;;4.61;67.51;100461.13;5129568;27;20042;-29
2022/04/13 02:57:11;;;;;;;8.95;6.20;;;;;;;4.59;67.44;100482.41;5129250;27;20035;-28
2022/04/13 02:59:36;;;;;;;13.50;7.43;;;;;;;3.88;69.78;100470.81;5129263;27;20027;-33
2022/04/13 03:02:04;;;;;;;10.75;6.72;;;;;;;3.19;71.84;100491.31;5128978;27;20035;-29
2022/04/13 03:04:32;;;;;;;10.60;6.13;;;;;;;3.49;71.95;100497.81;5129352;27;20023;-31
2022/04/13 03:06:58;;;;;;;10.35;7.15;;;;;;;4.09;70.39;100486.16;5110573;27;20498;-28
2022/04/13 03:09:24;;;;;;;10.07;7.00;;;;;;;4.28;68.71;100497.34;5129085;27;20580;-31
2022/04/13 03:11:50;;;;;;;10.43;7.00;;;;;;;4.43;67.72;100485.94;5110296;27;20510;-32
2022/04/13 03:14:16;;;;;;;9.73;6.97;;;;;;;4.23;68.19;100476.75;5110352;27;20058;-29
2022/04/13 03:16:41;;;;;;;11.90;7.07;;;;;;;4.38;68.19;100463.66;5129081;27;20027;-29
2022/04/13 03:19:06;;;;;;;12.93;5.85;;;;;;;3.72;68.69;100491.91;5129167;27;20027;-31
2022/04/13 03:21:32;;;;;;;8.43;5.07;;;;;;;3.53;69.60;100491.22;5128930;27;20023;-34
2022/04/13 03:23:57;;;;;;;10.75;5.47;;;;;;;3.66;69.16;100492.56;5128939;27;20031;-28
2022/04/13 03:26:23;;;;;;;10.70;6.20;;;;;;;2.68;72.83;100486.03;5109988;27;20119;-30
2022/04/13 03:28:49;;;;;;;10.30;6.63;;;;;;;3.10;71.47;100493.09;5128284;27;20885;-29
2022/04/13 03:31:16;;;;;;;11.18;6.45;;;;;;;2.90;73.15;100497.81;5110052;27;20472;-30
2022/04/13 03:33:42;;;;;;;10.40;6.13;;;;;;;2.71;73.96;100509.38;5109643;27;20108;-31
2022/04/13 03:36:07;;;;;;;11.50;7.57;;;;;;;3.07;71.91;100503.97;5128879;27;20430;-31
2022/04/13 03:38:34;;;;;;;11.10;7.53;;;;;;;3.56;71.82;100513.81;5110074;28;20058;-29
2022/04/13 03:41:02;;;;;;;14.70;8.00;;;;;;;3.58;71.81;100511.84;5128698;27;20031;-28
2022/04/13 03:43:28;;;;;;;14.57;7.60;;;;;;;3.66;71.27;100516.28;5109879;28;20023;-33
2022/04/13 03:45:53;;;;;;;15.52;8.95;;;;;;;3.55;71.26;100486.59;5128607;27;20031;-30
2022/04/13 03:48:19;;;;;;;12.90;7.93;;;;;;;3.73;70.41;100501.47;5092810;28;20027;-33
2022/04/13 03:50:44;;;;;;;12.30;9.18;;;;;;;3.93;70.60;100512.53;5110034;28;20144;-28
2022/04/13 03:53:09;;;;;;;14.15;8.98;;;;;;;3.82;70.87;100505.75;5128486;28;20035;-30
2022/04/13 03:55:35;;;;;;;11.93;8.88;;;;;;;4.14;69.41;100491.75;5128678;28;20035;-29
2022/04/13 03:58:01;;;;;;;12.23;9.02;;;;;;;3.88;70.22;100523.56;5128335;28;20023;-28
2022/04/13 04:00:26;;;;;;;18.15;11.05;;;;;;;3.96;69.65;100510.41;5128509;28;20042;-29
2022/04/13 04:02:52;;;;;;;15.18;10.43;;;;;;;4.06;70.15;100504.13;5128331;28;20027;-33
2022/04/13 04:05:17;;;;;;;33.88;16.77;;;;;;;3.86;69.97;100530.81;5128856;28;20427;-29
2022/04/13 04:07:43;;;;;;;45.03;22.10;;;;;;;3.96;70.18;100535.94;5128288;28;20035;-31
2022/04/13 04:10:09;;;;;;;36.17;18.15;;;;;;;4.33;68.71;100531.97;5128246;28;20052;-28
2022/04/13 04:12:41;;;;;;;37.25;19.67;;;;;;;3.77;71.40;100547.66;5128137;28;20099;-32
2022/04/13 04:15:09;;;;;;;32.70;20.50;;;;;;;3.88;71.78;100557.88;5109896;28;20023;-29
2022/04/13 04:17:36;;;;;;;50.27;22.90;;;;;;;3.82;71.67;100540.91;5128120;28;20073;-28
2022/04/13 04:20:03;;;;;;;41.03;21.02;;;;;;;3.53;72.53;100538.69;5128333;28;20066;-29
2022/04/13 04:22:29;;;;;;;46.30;20.17;;;;;;;3.58;72.88;100548.78;5109370;28;20122;-29
2022/04/13 04:24:54;;;;;;;31.30;16.52;;;;;;;3.91;71.59;100560.19;5128232;28;20452;-28
2022/04/13 04:27:20;;;;;;;34.33;17.27;;;;;;;3.93;71.54;100552.94;5127980;28;20045;-29
2022/04/13 04:29:45;;;;;;;24.30;16.20;;;;;;;4.50;68.91;100564.50;5128183;28;20031;-29
2022/04/13 04:32:11;;;;;;;16.85;13.10;;;;;;;4.34;69.51;100582.00;5128029;28;20784;-28
2022/04/13 04:34:36;;;;;;;14.35;12.35;;;;;;;4.36;69.80;100566.81;5127898;28;20031;-29
2022/04/13 04:37:02;;;;;;;13.32;10.80;;;;;;;4.34;69.82;100563.50;5127920;28;20775;-29
2022/04/13 04:39:28;;;;;;;13.10;9.65;;;;;;;4.49;69.13;100565.47;5130608;27;20395;-30
2022/04/13 04:41:54;;;;;;;30.25;23.90;;;;;;;4.30;70.97;100575.41;5132060;27;20434;-33
2022/04/13 04:44:20;;;;;;;38.40;28.60;;;;;;;4.53;70.78;100569.44;5131840;27;20019;-28
2022/04/13 04:46:45;;;;;;;99.63;76.70;;;;;;;4.60;69.57;100567.78;5131912;27;20410;-28
2022/04/13 04:49:11;;;;;;;75.88;59.47;;;;;;;4.61;69.29;100558.88;5131950;27;20566;-28
2022/04/13 04:51:36;;;;;;;28.08;23.63;;;;;;;4.82;69.41;100580.31;5113259;27;20027;-29
2022/04/13 04:54:03;;;;;;;13.93;11.68;;;;;;;4.75;70.21;100567.94;5131809;27;20034;-29
2022/04/13 04:56:29;;;;;;;14.15;12.27;;;;;;;5.02;69.17;100586.00;5131204;27;20109;-29
2022/04/13 04:58:55;;;;;;;14.50;10.70;;;;;;;5.02;69.43;100585.19;5131993;27;20463;-30
2022/04/13 05:01:21;;;;;;;12.32;10.32;;;;;;;5.03;70.08;100571.00;5113276;27;20507;-28
2022/04/13 05:03:49;;;;;;;11.00;8.60;;;;;;;5.40;67.93;100593.34;5131813;27;20026;-29
2022/04/13 05:06:23;;;;;;;14.70;9.70;;;;;;;5.61;68.09;100601.47;5112824;27;20513;-31
2022/04/13 05:08:49;;;;;;;11.90;8.63;;;;;;;5.84;67.96;100598.06;5112909;27;20107;-29
2022/04/13 05:11:16;;;;;;;12.02;8.82;;;;;;;5.93;66.71;100604.97;5112637;27;20035;-29
2022/04/13 05:13:45;;;;;;;10.07;8.27;;;;;;;6.11;65.10;100587.97;5112948;27;20024;-28
2022/04/13 05:16:11;;;;;;;13.60;8.52;;;;;;;6.32;65.21;100614.66;5112735;27;20031;-28
2022/04/13 05:18:37;;;;;;;10.57;9.23;;;;;;;6.47;64.35;100596.13;5112842;27;20064;-30
2022/04/13 05:21:03;;;;;;;11.55;8.80;;;;;;;6.53;63.95;100607.84;5131488;27;20027;-30
2022/04/13 05:23:29;;;;;;;12.63;8.45;;;;;;;6.73;63.24;100592.28;5095532;27;20475;-35
2022/04/13 05:25:54;;;;;;;11.00;8.02;;;;;;;6.90;63.40;100609.66;5112752;27;20035;-29
2022/04/13 05:28:20;;;;;;;14.00;10.73;;;;;;;7.01;63.73;100609.22;5130781;27;20466;-29
2022/04/13 05:30:45;;;;;;;14.15;11.32;;;;;;;7.23;63.17;100618.09;5131203;27;20063;-29
2022/04/13 05:33:12;;;;;;;15.10;10.88;;;;;;;7.24;62.16;100618.91;5130989;27;20503;-29
2022/04/13 05:35:38;;;;;;;12.50;8.60;;;;;;;7.32;62.19;100618.00;5112314;27;20043;-30
2022/04/13 05:38:05;;;;;;;12.10;8.68;;;;;;;7.44;62.50;100613.88;5130711;27;20027;-29
2022/04/13 05:40:31;;;;;;;11.82;8.38;;;;;;;7.76;59.53;100601.19;5130677;27;20487;-31
2022/04/13 05:42:56;;;;;;;9.63;7.57;;;;;;;7.90;60.44;100618.91;5112379;27;20099;-29
2022/04/13 05:45:22;;;;;;;10.32;7.47;;;;;;;7.69;59.80;100608.25;5130750;27;20444;-32
2022/04/13 05:47:48;;;;;;;12.63;8.35;;;;;;;8.02;59.80;100617.41;5130672;27;20498;-29
2022/04/13 05:50:14;;;;;;;12.57;7.72;;;;;;;8.12;59.86;100603.81;5111110;27;20035;-29
2022/04/13 05:52:41;;;;;;;12.48;8.02;;;;;;;7.96;59.79;100607.53;5111616;27;20566;-31
2022/04/13 05:55:07;;;;;;;13.20;9.60;;;;;;;8.10;60.69;100623.63;5111981;27;20121;-31
2022/04/13 05:57:33;;;;;;;12.73;8.68;;;;;;;8.53;59.29;100618.31;5130540;27;20031;-29
2022/04/13 05:59:59;;;;;;;13.05;9.57;;;;;;;8.65;59.43;100622.09;5130465;27;20030;-31
2022/04/13 06:02:24;;;;;;;10.32;8.20;;;;;;;8.57;56.35;100619.56;5130014;27;20027;-29
2022/04/13 06:04:50;;;;;;;10.98;7.35;;;;;;;8.27;57.28;100618.88;5130441;27;20031;-29
2022/04/13 06:07:16;;;;;;;10.65;7.28;;;;;;;8.40;57.98;100603.88;5129930;27;20042;-31
2022/04/13 06:09:42;;;;;;;9.88;7.30;;;;;;;8.81;58.00;100600.53;5128826;27;20121;-29
2022/04/13 06:12:09;;;;;;;11.25;6.93;;;;;;;9.06;55.62;100608.06;5111303;27;20031;-34
2022/04/13 06:14:34;;;;;;;9.38;6.90;;;;;;;9.21;56.45;100622.09;5111510;27;20027;-31
2022/04/13 06:17:00;;;;;;;13.48;7.07;;;;;;;9.38;56.39;100614.59;5111172;27;20042;-34
2022/04/13 06:19:25;;;;;;;10.10;7.30;;;;;;;9.30;56.42;100624.59;5129917;27;20027;-29
2022/04/13 06:21:51;;;;;;;12.80;7.82;;;;;;;9.33;56.49;100610.88;5111255;27;20050;-30
2022/04/13 06:24:16;;;;;;;13.23;8.10;;;;;;;9.56;55.98;100629.19;5129461;27;20538;-31
2022/04/13 06:26:42;;;;;;;9.32;7.22;;;;;;;9.37;57.07;100625.44;5129930;27;20031;-29
2022/04/13 06:29:08;;;;;;;10.63;6.97;;;;;;;9.58;56.05;100628.00;5129668;27;20059;-30
2022/04/13 06:31:34;;;;;;;9.75;6.68;;;;;;;9.11;56.33;100610.94;5111027;27;20031;-30
2022/04/13 06:34:00;;;;;;;10.32;7.10;;;;;;;8.85;55.92;100620.41;5129612;27;20027;-30
2022/04/13 06:36:25;;;;;;;10.68;6.97;;;;;;;9.24;55.37;100616.34;5107061;28;20089;-30
2022/04/13 06:38:51;;;;;;;10.68;6.45;;;;;;;9.57;55.34;100621.00;5107470;28;20031;-31
2022/04/13 06:41:16;;;;;;;9.25;6.35;;;;;;;9.59;53.47;100608.31;5109110;28;20076;-31
2022/04/13 06:43:42;;;;;;;9.30;6.88;;;;;;;10.08;54.73;100632.25;5109270;28;20020;-31
2022/04/13 06:46:08;;;;;;;11.95;6.88;;;;;;;9.69;53.76;100613.28;5109072;28;20111;-29
2022/04/13 06:48:33;;;;;;;10.82;6.40;;;;;;;9.72;53.50;100620.84;5107542;28;20401;-30
2022/04/13 06:51:00;;;;;;;10.80;7.05;;;;;;;9.81;55.21;100609.03;5108741;28;20031;-29
2022/04/13 06:53:26;;;;;;;9.52;6.78;;;;;;;10.31;55.06;100623.91;5090763;28;20120;-32
2022/04/13 06:55:51;;;;;;;10.55;6.80;;;;;;;10.35;51.39;100612.63;5107477;28;20118;-34
2022/04/13 06:58:19;;;;;;;9.57;6.78;;;;;;;10.55;52.45;100623.31;5107093;28;20028;-29
2022/04/13 07:00:45;;;;;;;8.37;5.77;;;;;;;10.36;52.74;100608.97;5107156;28;20487;-29
2022/04/13 07:03:10;;;;;;;10.52;6.25;;;;;;;10.50;53.20;100631.13;5107991;28;20039;-31
2022/04/13 07:05:36;;;;;;;10.43;6.38;;;;;;;10.66;50.85;100629.88;5108382;28;20395;-32
2022/04/13 07:08:02;;;;;;;9.95;6.03;;;;;;;10.84;49.49;100631.91;5108586;28;20111;-29
2022/04/13 07:10:29;;;;;;;10.35;6.60;;;;;;;10.89;50.98;100624.13;5106768;28;20128;-35
2022/04/13 07:12:55;;;;;;;9.63;6.00;;;;;;;11.01;49.50;100632.31;5107030;28;20031;-29
2022/04/13 07:15:21;;;;;;;9.80;6.40;;;;;;;11.20;49.26;100639.47;5106911;28;20053;-32
2022/04/13 07:17:47;;;;;;;11.43;6.53;;;;;;;11.62;49.53;100645.28;5108513;28;20027;-29
2022/04/13 07:20:13;;;;;;;8.30;5.90;;;;;;;11.58;48.46;100638.72;5106487;28;20123;-31
2022/04/13 07:22:49;;;;;;;8.50;5.55;;;;;;;11.43;47.81;100638.19;5107256;28;20060;-29
2022/04/13 07:25:17;;;;;;;9.48;5.38;;;;;;;11.22;46.85;100629.41;5107013;28;20435;-29
2022/04/13 07:27:43;;;;;;;8.07;5.33;;;;;;;11.35;46.54;100643.75;5106939;28;20027;-29
2022/04/13 07:30:09;;;;;;;8.55;5.40;;;;;;;11.53;48.47;100629.72;5106312;28;20665;-34
2022/04/13 07:32:35;;;;;;;9.65;5.75;;;;;;;11.81;46.06;100632.91;5106477;28;20032;-33
2022/04/13 07:35:00;;;;;;;7.55;5.70;;;;;;;11.85;46.16;100641.31;5108238;28;20027;-30
2022/04/13 07:37:26;;;;;;;11.88;5.90;;;;;;;11.89;46.69;100642.56;5127174;27;20086;-29
2022/04/13 07:39:52;;;;;;;9.05;5.45;;;;;;;11.80;47.05;100630.44;5109874;28;20023;-34
2022/04/13 07:42:36;;;;;;;9.38;5.68;;;;;;;12.29;46.45;100650.34;5109901;27;20042;-34
2022/04/13 07:45:04;;;;;;;10.82;6.00;;;;;;;12.26;45.57;100621.34;5109869;28;20023;-29
2022/04/13 07:47:29;;;;;;;10.48;5.93;;;;;;;12.45;46.15;100617.72;5128573;27;20555;-32
2022/04/13 07:49:55;;;;;;;9.63;5.93;;;;;;;12.39;45.42;100629.28;5128512;27;20023;-31
2022/04/13 07:52:20;;;;;;;9.27;5.75;;;;;;;12.31;44.29;100626.88;5109747;28;20031;-29
2022/04/13 07:54:46;;;;;;;8.75;5.95;;;;;;;12.68;45.33;100637.69;5128295;28;20031;-31
2022/04/13 07:57:12;;;;;;;7.60;5.72;;;;;;;12.60;43.86;100635.28;5128241;28;20061;-29
2022/04/13 07:59:37;;;;;;;9.13;5.40;;;;;;;12.58;44.94;100622.13;5109634;28;20088;-29
2022/04/13 08:02:04;;;;;;;11.73;5.70;;;;;;;12.57;43.98;100625.03;5109762;28;20023;-29
2022/04/13 08:04:29;;;;;;;10.70;6.00;;;;;;;12.38;43.55;100632.16;5109695;28;20030;-33
2022/04/13 08:06:55;;;;;;;8.68;6.25;;;;;;;12.91;44.51;100633.59;5126863;28;20117;-29
2022/04/13 08:09:21;;;;;;;9.60;6.30;;;;;;;12.74;44.89;100631.47;5128352;28;20461;-29
2022/04/13 08:11:46;;;;;;;11.07;6.70;;;;;;;12.90;44.91;100619.38;5127995;28;20106;-28
2022/04/13 08:14:12;;;;;;;9.13;6.03;;;;;;;13.12;44.42;100635.03;5130067;27;20117;-35
2022/04/13 08:16:37;;;;;;;8.55;6.65;;;;;;;12.90;43.45;100629.28;5113642;27;20470;-30
2022/04/13 08:19:05;;;;;;;13.38;7.10;;;;;;;13.00;43.34;100632.28;5113901;27;20034;-29
2022/04/13 08:21:31;;;;;;;9.95;6.32;;;;;;;13.49;42.91;100603.75;5132435;27;20073;-30
2022/04/13 08:23:56;;;;;;;11.02;6.95;;;;;;;13.77;42.45;100619.28;5132304;27;20856;-28
2022/04/13 08:26:22;;;;;;;10.57;6.50;;;;;;;13.78;43.91;100626.25;5131986;27;20083;-28
2022/04/13 08:28:47;;;;;;;9.32;7.00;;;;;;;13.73;42.75;100606.53;5131793;27;20564;-29
2022/04/13 08:31:13;;;;;;;10.20;6.47;;;;;;;13.40;43.02;100634.56;5113517;27;20415;-30
2022/04/13 08:33:38;;;;;;;10.43;6.45;;;;;;;13.85;43.71;100599.34;5131651;27;20023;-29
2022/04/13 08:36:04;;;;;;;8.88;6.65;;;;;;;14.16;42.09;100616.25;5131904;27;20089;-31
2022/04/13 08:38:30;;;;;;;9.98;6.30;;;;;;;14.30;42.49;100611.50;5113170;27;20405;-37
2022/04/13 08:40:58;;;;;;;9.60;6.40;;;;;;;14.61;43.41;100619.31;5131968;27;20066;-29
2022/04/13 08:43:48;;;;;;;11.50;6.72;;;;;;;14.56;40.49;100610.31;5112873;27;20099;-32
2022/04/13 08:46:40;;;;;;;10.95;7.05;;;;;;;14.83;41.15;100603.44;5113325;27;20559;-30
2022/04/13 08:49:09;;;;;;;10.48;6.80;;;;;;;14.81;40.82;100589.44;5127733;27;20043;-30
2022/04/13 08:51:36;;;;;;;9.82;6.95;;;;;;;14.59;39.28;100604.50;5113256;27;20042;-31
2022/04/13 08:54:18;;;;;;;11.80;7.00;;;;;;;15.10;38.24;100588.69;5131351;27;20027;-29
2022/04/13 08:56:47;;;;;;;11.98;7.13;;;;;;;15.84;41.18;100587.00;5113230;27;20027;-33
2022/04/13 08:59:25;;;;;;;11.25;7.07;;;;;;;15.49;41.16;100595.16;5131486;27;20027;-29
2022/04/13 09:02:14;;;;;;;;;;;;;;;15.50;41.69;100595.97;5113508;27;20542;-29
2022/04/13 09:04:45;;;;;;;13.90;7.07;;;;;;;15.43;39.90;100586.19;5131110;27;20378;-35
2022/04/13 09:07:13;;;;;;;10.30;6.90;;;;;;;15.67;39.68;100595.00;5112760;27;20031;-29
2022/04/13 09:09:46;;;;;;;10.63;6.97;;;;;;;15.59;38.95;100581.94;5112862;27;20039;-29
2022/04/13 09:12:14;;;;;;;11.40;6.68;;;;;;;15.53;37.71;100572.13;5112405;27;20069;-29
2022/04/13 09:14:40;;;;;;;9.70;6.97;;;;;;;15.83;36.82;100571.09;5112530;27;20055;-29
2022/04/13 09:17:06;;;;;;;11.05;7.10;;;;;;;15.96;37.78;100565.41;5112534;27;20027;-30
2022/04/13 09:19:33;;;;;;;9.82;6.57;;;;;;;16.07;39.40;100556.44;5131270;27;20035;-28
2022/04/13 09:21:59;;;;;;;9.68;7.07;;;;;;;15.57;39.13;100562.53;5112560;27;20486;-30
2022/04/13 09:24:27;;;;;;;11.43;7.13;;;;;;;15.38;40.29;100556.50;5111944;27;20035;-30
2022/04/13 09:26:58;;;;;;;10.85;7.30;;;;;;;15.84;38.61;100559.28;5112021;27;20521;-34
2022/04/13 09:29:23;;;;;;;10.10;6.78;;;;;;;15.95;37.01;100531.50;5112274;27;20035;-30
2022/04/13 09:31:49;;;;;;;10.55;6.20;;;;;;;16.23;37.53;100532.50;5131161;27;20031;-31
2022/04/13 09:34:14;;;;;;;12.65;7.35;;;;;;;16.92;38.05;100532.19;5130615;27;20109;-31
2022/04/13 09:36:41;;;;;;;13.93;6.70;;;;;;;17.09;38.31;100551.00;5130856;27;20075;-34
2022/04/13 09:39:07;;;;;;;9.73;6.10;;;;;;;17.21;38.78;100532.81;5130582;27;20107;-30
2022/04/13 09:41:37;;;;;;;10.48;6.47;;;;;;;17.33;36.92;100534.56;5112128;27;20667;-29
2022/04/13 09:44:18;;;;;;;9.02;5.75;;;;;;;16.61;35.49;100509.34;5111949;27;20033;-30
2022/04/13 09:46:44;;;;;;;10.75;6.28;;;;;;;16.69;37.74;100538.56;5131027;27;20032;-29
2022/04/13 09:49:15;;;;;;;8.65;5.72;;;;;;;17.13;34.74;100535.94;5111850;27;20031;-30
2022/04/13 09:51:43;;;;;;;9.93;5.75;;;;;;;17.47;34.53;100517.75;5111787;27;20498;-33
2022/04/13 09:54:12;;;;;;;9.65;5.60;;;;;;;17.89;34.63;100526.25;5111577;27;20042;-32
2022/04/13 09:56:47;;;;;;;7.88;5.53;;;;;;;18.00;33.34;100531.50;5130204;27;20619;-31
2022/04/13 09:59:30;;;;;;;11.98;6.40;;;;;;;17.56;33.53;100518.09;5111797;27;20122;-29
2022/04/13 10:01:56;;;;;;;10.70;5.75;;;;;;;17.75;33.15;100525.81;5111878;27;20122;-31
2022/04/13 10:04:24;;;;;;;7.50;4.93;;;;;;;17.98;34.71;100522.84;5111420;27;20031;-29
2022/04/13 10:06:49;;;;;;;9.75;4.90;;;;;;;18.07;35.04;100513.19;5111426;27;20059;-30
2022/04/13 10:09:15;;;;;;;8.38;5.55;;;;;;;18.35;33.15;100492.34;5130271;27;20070;-31
2022/04/13 10:12:01;;;;;;;9.27;5.25;;;;;;;18.52;34.60;100494.06;5130136;27;20051;-32
2022/04/13 10:14:27;;;;;;;8.02;4.50;;;;;;;18.46;30.69;100512.94;5129656;27;20027;-30
2022/04/13 10:16:56;;;;;;;6.82;4.00;;;;;;;18.92;30.97;100501.59;5111205;27;20051;-29
2022/04/13 10:19:22;;;;;;;5.65;3.42;;;;;;;18.58;28.78;100493.03;5110913;27;20035;-29
2022/04/13 10:21:52;;;;;;;7.00;4.00;;;;;;;18.68;30.39;100495.78;5111329;27;20122;-29
2022/04/13 10:24:24;;;;;;;6.03;3.67;;;;;;;18.46;30.89;100509.44;5111129;27;20058;-32
2022/04/13 10:27:24;;;;;;;6.55;3.50;;;;;;;18.91;31.29;100501.88;5111267;27;20558;-29
2022/04/13 10:29:50;;;;;;;6.65;2.90;;;;;;;19.17;29.30;100475.75;5067314;27;20031;-29
2022/04/13 10:32:23;;;;;;;6.10;3.45;;;;;;;19.24;28.41;100496.03;5110951;27;20029;-32
2022/04/13 10:34:54;;;;;;;7.25;4.15;;;;;;;19.30;30.79;100490.66;5111034;27;20035;-29
2022/04/13 10:37:23;;;;;;;6.50;3.58;;;;;;;19.51;30.93;100470.66;5129186;27;20055;-30
2022/04/13 10:39:49;;;;;;;8.10;4.03;;;;;;;19.49;27.42;100483.63;5129365;27;20022;-29
2022/04/13 10:42:19;;;;;;;8.88;3.80;;;;;;;19.23;28.32;100488.19;5110561;27;20031;-29
2022/04/13 10:45:05;;;;;;;7.72;3.70;;;;;;;19.30;30.17;100479.81;5110741;27;20119;-31
2022/04/13 10:47:41;;;;;;;7.00;3.72;;;;;;;18.63;28.57;100474.13;5129376;27;20100;-30
2022/04/13 10:50:07;;;;;;;4.97;3.40;;;;;;;19.20;26.78;100465.19;5110627;27;20083;-33
2022/04/13 10:52:40;;;;;;;5.60;3.33;;;;;;;20.16;28.48;100459.34;5110541;27;20038;-32
2022/04/13 10:55:14;;;;;;;6.18;3.53;;;;;;;19.23;27.08;100432.22;5129097;27;20084;-35
2022/04/13 10:58:13;;;;;;;6.00;3.50;;;;;;;19.82;29.92;100476.97;5129225;27;20064;-29
2022/04/13 11:00:43;;;;;;;6.65;3.53;;;;;;;20.13;28.60;100459.91;5110594;27;20091;-29
2022/04/13 11:03:11;;;;;;;5.65;3.38;;;;;;;20.57;28.44;100459.25;5110356;27;20518;-32
2022/04/13 11:05:40;;;;;;;7.30;3.60;;;;;;;20.64;25.33;100448.97;5128989;27;20038;-31
2022/04/13 11:08:28;;;;;;;7.55;3.50;;;;;;;21.10;26.81;100459.59;5110436;27;20257;-31
2022/04/13 11:10:54;;;;;;;7.28;3.08;;;;;;;20.34;26.31;100461.47;5110387;27;20487;-33
2022/04/13 11:13:21;;;;;;;6.60;3.25;;;;;;;20.77;27.34;100464.63;5110118;27;20028;-32
2022/04/13 11:15:50;;;;;;;7.07;3.17;;;;;;;20.65;26.70;100443.25;5109987;27;20042;-29
2022/04/13 11:18:20;;;;;;;6.50;3.22;;;;;;;20.76;26.70;100463.00;5109909;27;20033;-30
2022/04/13 11:21:01;;;;;;;4.93;3.20;;;;;;;21.18;25.03;100450.06;5110290;27;20027;-29
2022/04/13 11:23:46;;;;;;;4.03;2.33;;;;;;;21.89;24.76;100451.47;5109943;27;20118;-29
2022/04/13 11:26:12;;;;;;;5.05;2.55;;;;;;;22.13;24.97;100450.69;5128269;27;20093;-32